ADDS METAR Data INFO
IDs: Format: Raw Decoded Include TAF

Data at: 2041 UTC 20 Jul 2018

KFOT 202035Z AUTO 30012KT 8SM CLR 18/12 A2995 RMK AO1
KFOT 202015Z AUTO 29012KT 8SM CLR 18/12 A2995 RMK AO1
KFOT 201955Z AUTO 30011KT 8SM CLR 18/12 A2995 RMK AO1
KFOT 201935Z AUTO 32013KT 7SM CLR 18/12 A2994 RMK AO1
KFOT 201915Z AUTO 29009KT 8SM CLR 18/12 A2994 RMK AO1
KFOT 201855Z AUTO 30009KT 8SM CLR 18/13 A2995 RMK AO1
KFOT 201835Z AUTO 30008KT 7SM CLR 18/13 A2994 RMK AO1
KFOT 201815Z AUTO 30007KT 8SM CLR 18/13 A2994 RMK AO1
KFOT 201755Z AUTO 30006KT 9SM CLR 18/13 A2994 RMK AO1
KFOT 201735Z AUTO 34006KT 10SM CLR 17/12 A2994 RMK AO1
KFOT 201715Z AUTO 31004KT 10SM CLR 17/12 A2994 RMK AO1
KFOT 201655Z AUTO 31004KT 10SM CLR 16/11 A2994 RMK AO1
KFOT 201635Z AUTO 33003KT 10SM CLR 15/11 A2994 RMK AO1
KFOT 201615Z AUTO 35003KT 10SM CLR 14/11 A2994 RMK AO1
KFOT 201555Z AUTO 00000KT 9SM CLR 13/10 A2994 RMK AO1
KFOT 201535Z AUTO 00000KT 10SM CLR 13/10 A2994 RMK AO1
KFOT 201515Z AUTO 00000KT 10SM CLR 12/10 A2994 RMK AO1
KFOT 201455Z AUTO 00000KT 9SM CLR 11/10 A2994 RMK AO1
KFOT 201435Z AUTO 14003KT 8SM CLR 10/09 A2994 RMK AO1
KFOT 201415Z AUTO 00000KT 7SM CLR 09/09 A2993 RMK AO1
KFOT 201355Z AUTO 13003KT 5SM CLR 09/09 A2993 RMK AO1
KFOT 201335Z AUTO 14004KT 4SM CLR 08/08 A2993 RMK AO1
KFOT 201315Z AUTO 14004KT 3SM CLR 08/08 A2993 RMK AO1
KFOT 201255Z AUTO 15004KT 4SM CLR 08/08 A2993 RMK AO1
KFOT 201235Z AUTO 15003KT 5SM CLR 08/08 A2993 RMK AO1
KFOT 201215Z AUTO 14004KT 3SM CLR 08/08 A2993 RMK AO1
KFOT 201155Z AUTO 15003KT 4SM CLR 08/08 A2993 RMK AO1
KFOT 201135Z AUTO 15004KT 6SM CLR 08/08 A2993 RMK AO1
KFOT 201115Z AUTO 12003KT 5SM CLR 08/08 A2993 RMK AO1
KFOT 201055Z AUTO 15003KT 5SM CLR 08/08 A2992 RMK AO1
KFOT 201035Z AUTO 14005KT 5SM CLR 08/08 A2992 RMK AO1
KFOT 201015Z AUTO 13004KT 7SM CLR 08/08 A2992 RMK AO1
KFOT 200955Z AUTO 13005KT 5SM CLR 08/08 A2993 RMK AO1
KFOT 200935Z AUTO 14005KT 5SM CLR 08/08 A2993 RMK AO1
KFOT 200915Z AUTO 14004KT 5SM CLR 08/08 A2993 RMK AO1
KFOT 200855Z AUTO 15004KT 5SM CLR 08/08 A2994 RMK AO1
KFOT 200835Z AUTO 13004KT 5SM CLR 08/08 A2994 RMK AO1
KFOT 200815Z AUTO 13004KT 7SM CLR 09/09 A2995 RMK AO1
KFOT 200755Z AUTO 15003KT 7SM CLR 09/08 A2995 RMK AO1
KFOT 200735Z AUTO 14003KT 7SM CLR 09/09 A2996 RMK AO1
KFOT 200715Z AUTO 12003KT 7SM FEW013 10/09 A2997 RMK AO1
KFOT 200655Z AUTO 13003KT 7SM SCT013 10/09 A2997 RMK AO1
KFOT 200635Z AUTO 00000KT 7SM BKN015 10/09 A2998 RMK AO1
KFOT 200615Z AUTO 00000KT 8SM BKN015 11/09 A2998 RMK AO1
KFOT 200555Z AUTO 00000KT 8SM BKN015 11/09 A2999 RMK AO1
KFOT 200535Z AUTO 25003KT 8SM SCT015 11/09 A3000 RMK AO1
KFOT 200515Z AUTO 24003KT 7SM SCT015 11/09 A3000 RMK AO1
KFOT 200455Z AUTO 28003KT 7SM CLR 11/09 A3000 RMK AO1
KFOT 200435Z AUTO 28005KT 8SM CLR 11/09 A3000 RMK AO1
KFOT 200415Z AUTO 28005KT 7SM CLR 12/09 A3000 RMK AO1
KFOT 200355Z AUTO 28005KT 7SM CLR 12/09 A3000 RMK AO1
KFOT 200335Z AUTO 28007KT 7SM CLR 13/10 A3000 RMK AO1
KFOT 200315Z AUTO 29007KT 8SM CLR 13/10 A3000 RMK AO1
KFOT 200255Z AUTO 29008KT 8SM CLR 14/10 A3000 RMK AO1
KFOT 200235Z AUTO 29009KT 8SM CLR 14/10 A3001 RMK AO1
KFOT 200215Z AUTO 29010G16KT 9SM CLR 15/10 A3001 RMK AO1
KFOT 200155Z AUTO 30012KT 9SM CLR 15/10 A3001 RMK AO1
KFOT 200135Z AUTO 29011G17KT 10SM CLR 16/10 A3001 RMK AO1
KFOT 200115Z AUTO 28011G17KT 9SM CLR 16/10 A3002 RMK AO1
KFOT 200055Z AUTO 28010KT 10SM CLR 17/11 A3002 RMK AO1
KFOT 200035Z AUTO 28015G19KT 10SM CLR 17/11 A3002 RMK AO1
KFOT 200015Z AUTO 29012KT 10SM CLR 17/11 A3002 RMK AO1
KFOT 192355Z AUTO 29013G19KT 10SM CLR 18/11 A3003 RMK AO1
KFOT 192335Z AUTO 29014G18KT 10SM CLR 18/12 A3003 RMK AO1
KFOT 192315Z AUTO 29013G18KT 10SM CLR 18/12 A3003 RMK AO1
KFOT 192255Z AUTO 29014KT 10SM CLR 18/12 A3003 RMK AO1
KFOT 192235Z AUTO 29017G21KT 10SM CLR 19/12 A3004 RMK AO1
KFOT 192215Z AUTO 28015G22KT 10SM CLR 19/12 A3004 RMK AO1
KFOT 192155Z AUTO 30015G20KT 10SM CLR 18/12 A3004 RMK AO1
KFOT 192135Z AUTO 28014G20KT 10SM CLR 18/12 A3005 RMK AO1
KFOT 192115Z AUTO 29014G18KT 10SM CLR 18/12 A3005 RMK AO1
KFOT 192055Z AUTO 28012G18KT 10SM CLR 18/12 A3005 RMK AO1
KFOT 192035Z AUTO 28015G19KT 10SM CLR 18/12 A3005 RMK AO1
KFOT 192015Z AUTO 27013KT 10SM CLR 18/13 A3005 RMK AO1
KFOT 191955Z AUTO 29012G17KT 10SM FEW013 17/13 A3005 RMK AO1
KFOT 191935Z AUTO 30012G16KT 10SM FEW013 18/13 A3004 RMK AO1
KFOT 191915Z AUTO 29011KT 10SM CLR 17/13 A3004 RMK AO1
KFOT 191855Z AUTO 30010KT 10SM CLR 17/13 A3004 RMK AO1
KFOT 191835Z AUTO 33010KT 9SM FEW005 17/13 A3004 RMK AO1
KFOT 191815Z AUTO 32009KT 10SM SCT006 15/13 A3005 RMK AO1
KFOT 191755Z AUTO 31008KT 10SM BKN006 15/13 A3004 RMK AO1
KFOT 191735Z AUTO 34006KT 8SM BKN005 14/13 A3004 RMK AO1
KFOT 191715Z AUTO 30007KT 7SM OVC006 14/12 A3005 RMK AO1
KFOT 191655Z AUTO 32006KT 7SM OVC005 13/13 A3005 RMK AO1
KFOT 191635Z AUTO 32005KT 5SM OVC004 12/12 A3005 RMK AO1
KFOT 191615Z AUTO 32005KT 4SM OVC003 12/12 A3005 RMK AO1
KFOT 191555Z AUTO 31006KT M1/4SM OVC002 12/12 A3005 RMK AO1
KFOT 191535Z AUTO 34005KT 1/2SM OVC002 12/12 A3005 RMK AO1
KFOT 191515Z AUTO 30005KT M1/4SM OVC002 12/12 A3004 RMK AO1
KFOT 191455Z AUTO 34004KT M1/4SM OVC002 12/12 A3004 RMK AO1
KFOT 191435Z AUTO 30005KT M1/4SM OVC002 11/11 A3005 RMK AO1
KFOT 191415Z AUTO 30004KT M1/4SM OVC002 11/11 A3004 RMK AO1
KFOT 191355Z AUTO 35003KT 1/4SM OVC002 11/11 A3004 RMK AO1
KFOT 191335Z AUTO 36003KT M1/4SM OVC002 11/11 A3004 RMK AO1
KFOT 191315Z AUTO 32003KT M1/4SM OVC002 11/11 A3003 RMK AO1
KFOT 191255Z AUTO 30005KT 1/2SM OVC002 11/11 A3003 RMK AO1
KFOT 191235Z AUTO 28006KT 1SM OVC001 11/11 A3003 RMK AO1
KFOT 191215Z AUTO 30005KT 1/4SM OVC001 12/12 A3003 RMK AO1
KFOT 191155Z AUTO 30008KT 1/4SM OVC002 12/12 A3003 RMK AO1
KFOT 191135Z AUTO 30004KT 1/4SM OVC002 12/12 A3003 RMK AO1
KFOT 191115Z AUTO 30007KT 1SM OVC002 12/12 A3003 RMK AO1
KFOT 191055Z AUTO 32004KT 4SM OVC003 12/12 A3003 RMK AO1
KFOT 191035Z AUTO 00000KT 5SM OVC003 12/12 A3002 RMK AO1
KFOT 191015Z AUTO 00000KT 5SM OVC003 12/12 A3002 RMK AO1
KFOT 190955Z AUTO 00000KT 5SM OVC003 12/12 A3003 RMK AO1
KFOT 190935Z AUTO 00000KT 6SM OVC004 12/12 A3003 RMK AO1
KFOT 190915Z AUTO 00000KT 5SM OVC004 12/12 A3003 RMK AO1
KFOT 190855Z AUTO 00000KT 4SM OVC004 12/12 A3003 RMK AO1